Time;durP1;ratioP1;P1;durP2;ratioP2;P2;SDS_P1;SDS_P2;PMS_P1;PMS_P2;Temp;Humidity;BMP_temperature;BMP_pressure;BME280_temperature;BME280_humidity;BME280_pressure;Samples;Min_cycle;Max_cycle;Signal;HPM_P1;HPM_P2
2022/01/13 00:02:21;;;;;;;42.83;20.17;;;;;;;;;;5088112;28;20430;-53
2022/01/13 00:04:47;;;;;;;39.80;19.93;;;;;;;;;;5072827;28;20477;-54
2022/01/13 00:07:14;;;;;;;36.20;18.40;;;;;;;;;;5072570;28;20407;-52
2022/01/13 00:09:40;;;;;;;39.90;19.63;;;;;;;;;;5088220;28;20430;-54
2022/01/13 00:12:08;;;;;;;40.37;19.40;;;;;;;;;;5072745;28;20414;-53
2022/01/13 00:19:46;;;;;;;38.57;18.37;;;;;;;;;;5072429;28;20433;-55
2022/01/13 00:22:27;;;;;;;31.57;18.30;;;;;;;;;;5072198;28;20455;-56
2022/01/13 00:24:57;;;;;;;38.00;19.53;;;;;;;;;;5072170;28;20474;-57
2022/01/13 00:27:26;;;;;;;34.80;18.77;;;;;;;;;;5072388;28;20413;-50
2022/01/13 00:29:55;;;;;;;37.07;18.70;;;;;;;;;;5072362;28;20970;-58
2022/01/13 00:32:23;;;;;;;34.00;18.60;;;;;;;;;;5072503;28;20737;-58
2022/01/13 00:34:49;;;;;;;38.97;20.20;;;;;;;;;;5072359;28;20915;-62
2022/01/13 00:37:15;;;;;;;38.57;18.80;;;;;;;;;;5072228;28;20413;-54
2022/01/13 00:39:41;;;;;;;39.83;19.33;;;;;;;;;;5072190;28;20846;-63
2022/01/13 00:42:08;;;;;;;32.70;17.70;;;;;;;;;;5072282;28;20429;-58
2022/01/13 00:44:38;;;;;;;34.10;18.07;;;;;;;;;;5072085;28;20481;-58
2022/01/13 00:47:07;;;;;;;36.93;18.83;;;;;;;;;;5071053;28;20964;-58
2022/01/13 00:49:33;;;;;;;41.30;18.53;;;;;;;;;;5088317;28;20430;-59
2022/01/13 00:51:59;;;;;;;31.93;17.33;;;;;;;;;;5075878;28;20411;-59
2022/01/13 00:54:26;;;;;;;41.20;18.60;;;;;;;;;;5076125;28;20766;-61
2022/01/13 00:56:52;;;;;;;33.57;17.77;;;;;;;;;;5076073;28;20425;-58
2022/01/13 00:59:18;;;;;;;32.73;17.27;;;;;;;;;;5076171;28;20417;-58
2022/01/13 01:01:46;;;;;;;33.33;18.30;;;;;;;;;;5075622;28;20490;-58
2022/01/13 01:04:12;;;;;;;34.87;17.67;;;;;;;;;;5075669;28;21028;-57
2022/01/13 01:06:38;;;;;;;36.93;16.30;;;;;;;;;;5075737;28;20493;-58
2022/01/13 01:09:05;;;;;;;38.87;17.60;;;;;;;;;;5075685;28;20428;-57
2022/01/13 01:11:31;;;;;;;36.43;17.63;;;;;;;;;;5075797;28;20763;-59
2022/01/13 01:13:59;;;;;;;36.77;18.80;;;;;;;;;;5075447;28;20499;-56
2022/01/13 01:16:26;;;;;;;36.27;18.30;;;;;;;;;;5075500;28;20825;-53
2022/01/13 01:19:00;;;;;;;34.33;17.53;;;;;;;;;;5075277;28;20478;-59
2022/01/13 01:26:38;;;;;;;34.80;17.60;;;;;;;;;;5075286;28;20760;-60
2022/01/13 01:31:51;;;;;;;33.90;17.00;;;;;;;;;;5075478;28;20919;-57
2022/01/13 01:37:03;;;;;;;38.20;18.10;;;;;;;;;;5075402;28;20464;-59
2022/01/13 01:39:29;;;;;;;38.37;18.03;;;;;;;;;;5074952;28;20410;-59
2022/01/13 01:41:56;;;;;;;41.60;18.87;;;;;;;;;;5075126;28;20430;-61
2022/01/13 01:44:24;;;;;;;37.57;17.80;;;;;;;;;;5074790;28;20470;-57
2022/01/13 01:46:50;;;;;;;43.57;17.90;;;;;;;;;;5074943;28;20507;-57
2022/01/13 01:49:20;;;;;;;34.47;17.17;;;;;;;;;;5074836;28;20502;-56
2022/01/13 01:51:48;;;;;;;36.03;17.40;;;;;;;;;;5075026;28;20832;-56
2022/01/13 01:54:14;;;;;;;33.07;17.63;;;;;;;;;;5074863;28;20460;-54
2022/01/13 01:56:41;;;;;;;37.83;17.57;;;;;;;;;;5074592;28;20411;-56
2022/01/13 01:59:08;;;;;;;34.60;16.80;;;;;;;;;;5089952;28;20430;-61
2022/01/13 02:01:34;;;;;;;35.73;18.00;;;;;;;;;;5073379;28;20422;-59
2022/01/13 02:04:00;;;;;;;32.93;17.90;;;;;;;;;;5074621;28;20458;-56
2022/01/13 02:06:26;;;;;;;34.03;17.30;;;;;;;;;;5074536;28;20422;-55
2022/01/13 02:08:52;;;;;;;31.40;15.93;;;;;;;;;;5074464;28;20486;-59
2022/01/13 02:11:18;;;;;;;40.67;16.63;;;;;;;;;;5074545;28;20842;-55
2022/01/13 02:13:50;;;;;;;26.17;13.80;;;;;;;;;;5074393;28;20498;-54
2022/01/13 02:16:42;;;;;;;39.60;18.13;;;;;;;;;;5089842;28;20419;-58
2022/01/13 02:19:09;;;;;;;35.10;17.47;;;;;;;;;;5074738;28;20403;-59
2022/01/13 02:21:35;;;;;;;32.80;17.37;;;;;;;;;;5089741;28;20528;-58
2022/01/13 02:24:01;;;;;;;39.77;18.70;;;;;;;;;;5074416;28;20470;-52
2022/01/13 02:26:28;;;;;;;35.67;16.90;;;;;;;;;;5074178;28;20402;-56
2022/01/13 02:28:54;;;;;;;33.40;17.17;;;;;;;;;;5074402;28;20419;-57
2022/01/13 02:31:21;;;;;;;36.90;16.80;;;;;;;;;;5073992;28;20418;-54
2022/01/13 02:33:47;;;;;;;32.67;12.37;;;;;;;;;;5089688;28;20774;-54
2022/01/13 02:36:16;;;;;;;46.50;18.33;;;;;;;;;;5074029;28;20414;-55
2022/01/13 02:38:42;;;;;;;30.43;16.03;;;;;;;;;;5073951;28;20419;-56
2022/01/13 02:41:08;;;;;;;30.60;15.57;;;;;;;;;;5074058;28;20407;-55
2022/01/13 02:43:34;;;;;;;27.10;12.13;;;;;;;;;;5073826;28;20458;-58
2022/01/13 02:46:18;;;;;;;38.03;18.10;;;;;;;;;;5073717;28;20500;-53
2022/01/13 02:48:44;;;;;;;36.83;17.67;;;;;;;;;;5073863;28;20759;-56
2022/01/13 02:51:10;;;;;;;34.10;15.43;;;;;;;;;;5073704;28;20411;-55
2022/01/13 02:53:36;;;;;;;31.53;16.80;;;;;;;;;;5073857;28;20464;-57
2022/01/13 02:56:04;;;;;;;35.40;17.80;;;;;;;;;;5073597;28;20442;-56
2022/01/13 02:58:31;;;;;;;27.80;13.77;;;;;;;;;;5073746;28;20419;-52
2022/01/13 03:00:57;;;;;;;30.90;12.70;;;;;;;;;;5073774;28;20403;-56
2022/01/13 03:03:23;;;;;;;39.13;17.20;;;;;;;;;;5073316;28;20549;-54
2022/01/13 03:05:49;;;;;;;34.50;17.47;;;;;;;;;;5073709;28;20414;-61
2022/01/13 03:08:15;;;;;;;32.97;17.47;;;;;;;;;;5089001;28;20411;-54
2022/01/13 03:10:41;;;;;;;32.30;16.93;;;;;;;;;;5073497;28;20514;-63
2022/01/13 03:13:08;;;;;;;38.63;14.90;;;;;;;;;;5072997;28;20976;-60
2022/01/13 03:15:34;;;;;;;36.10;17.77;;;;;;;;;;5073421;28;20857;-60
2022/01/13 03:18:00;;;;;;;36.03;17.40;;;;;;;;;;5073098;28;20442;-57
2022/01/13 03:20:29;;;;;;;41.23;17.57;;;;;;;;;;5088905;28;20528;-61
2022/01/13 03:22:56;;;;;;;36.27;18.27;;;;;;;;;;5073217;28;20407;-57
2022/01/13 03:25:23;;;;;;;42.90;17.10;;;;;;;;;;5088706;28;20438;-57
2022/01/13 03:27:56;;;;;;;32.73;15.00;;;;;;;;;;5073044;28;20403;-57
2022/01/13 03:30:22;;;;;;;39.37;17.57;;;;;;;;;;5072981;28;20784;-58
2022/01/13 03:32:48;;;;;;;35.50;16.43;;;;;;;;;;5072942;28;20410;-56
2022/01/13 03:35:14;;;;;;;36.53;18.30;;;;;;;;;;5072877;28;20410;-57
2022/01/13 03:37:40;;;;;;;37.67;17.80;;;;;;;;;;5072927;28;20433;-56
2022/01/13 03:40:06;;;;;;;38.07;16.17;;;;;;;;;;5073220;28;20411;-55
2022/01/13 03:42:32;;;;;;;32.87;17.73;;;;;;;;;;5073034;28;20407;-52
2022/01/13 03:45:00;;;;;;;38.30;17.23;;;;;;;;;;5072947;28;20506;-53
2022/01/13 03:47:26;;;;;;;31.10;16.00;;;;;;;;;;5072891;28;20501;-55
2022/01/13 03:49:54;;;;;;;23.53;13.83;;;;;;;;;;5072947;28;20434;-54
2022/01/13 03:52:23;;;;;;;36.43;17.60;;;;;;;;;;5073172;28;20419;-53
2022/01/13 03:55:07;;;;;;;31.50;16.23;;;;;;;;;;5072853;28;20403;-51
2022/01/13 03:57:59;;;;;;;30.43;15.67;;;;;;;;;;5088547;28;20501;-51
2022/01/13 04:00:46;;;;;;;34.37;15.70;;;;;;;;;;5088219;28;20525;-51
2022/01/13 04:03:12;;;;;;;35.30;18.40;;;;;;;;;;5072511;28;20411;-51
2022/01/13 04:05:58;;;;;;;36.13;16.73;;;;;;;;;;5088212;28;20461;-51
2022/01/13 04:08:24;;;;;;;32.50;17.13;;;;;;;;;;5072257;28;20510;-51
2022/01/13 04:10:52;;;;;;;34.27;16.27;;;;;;;;;;5072607;28;20446;-54
2022/01/13 04:13:34;;;;;;;33.97;17.00;;;;;;;;;;5072380;28;20806;-55
2022/01/13 04:16:00;;;;;;;32.50;16.60;;;;;;;;;;5072699;28;20411;-54
2022/01/13 04:18:26;;;;;;;39.10;18.17;;;;;;;;;;5072329;28;20413;-54
2022/01/13 04:20:51;;;;;;;30.93;16.90;;;;;;;;;;5072113;28;20885;-53
2022/01/13 04:23:17;;;;;;;36.10;16.73;;;;;;;;;;5072463;28;20410;-52
2022/01/13 04:25:44;;;;;;;30.13;16.37;;;;;;;;;;5074951;28;20430;-54
2022/01/13 04:28:10;;;;;;;33.30;16.63;;;;;;;;;;5076153;28;20402;-53
2022/01/13 04:30:48;;;;;;;33.40;16.20;;;;;;;;;;5076247;28;20417;-53
2022/01/13 04:33:14;;;;;;;31.37;15.30;;;;;;;;;;5076146;28;20403;-53
2022/01/13 04:35:41;;;;;;;25.83;14.40;;;;;;;;;;5076270;28;20491;-53
2022/01/13 04:38:07;;;;;;;27.73;14.23;;;;;;;;;;5076176;28;20411;-50
2022/01/13 04:40:35;;;;;;;25.10;13.10;;;;;;;;;;5076048;28;20771;-54
2022/01/13 04:43:01;;;;;;;22.37;12.27;;;;;;;;;;5075913;28;20407;-52
2022/01/13 04:45:27;;;;;;;30.23;14.83;;;;;;;;;;5091326;28;20914;-54
2022/01/13 04:47:54;;;;;;;26.87;14.73;;;;;;;;;;5076103;28;20418;-53
2022/01/13 04:50:22;;;;;;;29.20;14.80;;;;;;;;;;5075966;28;20772;-52
2022/01/13 04:52:48;;;;;;;17.43;10.70;;;;;;;;;;5076129;28;20406;-53
2022/01/13 04:55:21;;;;;;;26.83;13.97;;;;;;;;;;5075708;28;20410;-53
2022/01/13 04:57:47;;;;;;;29.57;15.07;;;;;;;;;;5075749;28;20418;-52
2022/01/13 05:00:13;;;;;;;26.93;14.10;;;;;;;;;;5075672;28;20771;-53
2022/01/13 05:02:39;;;;;;;27.30;14.83;;;;;;;;;;5075699;28;20395;-53
2022/01/13 05:05:05;;;;;;;34.53;15.40;;;;;;;;;;5075453;28;20512;-53
2022/01/13 05:07:32;;;;;;;25.70;14.90;;;;;;;;;;5075436;28;20433;-53
2022/01/13 05:09:58;;;;;;;28.33;15.30;;;;;;;;;;5075286;28;20771;-52
2022/01/13 05:12:30;;;;;;;26.50;14.20;;;;;;;;;;5075448;28;20402;-53
2022/01/13 05:14:59;;;;;;;31.33;15.17;;;;;;;;;;5075549;28;20403;-50
2022/01/13 05:17:59;;;;;;;25.43;14.47;;;;;;;;;;5075572;28;20422;-52
2022/01/13 05:20:23;;;;;;;25.37;12.83;;;;;;;;;;5074962;28;20469;-52
2022/01/13 05:22:49;;;;;;;23.37;13.23;;;;;;;;;;5075157;28;20453;-53
2022/01/13 05:25:16;;;;;;;29.10;15.50;;;;;;;;;;5075168;28;20564;-57
2022/01/13 05:27:42;;;;;;;29.87;14.57;;;;;;;;;;5075213;28;20529;-55
2022/01/13 05:30:09;;;;;;;27.63;14.40;;;;;;;;;;5075375;28;20442;-55
2022/01/13 05:32:35;;;;;;;27.00;14.07;;;;;;;;;;5075284;28;20507;-59
2022/01/13 05:35:02;;;;;;;23.90;14.27;;;;;;;;;;5074604;28;20563;-54
2022/01/13 05:37:28;;;;;;;34.87;13.87;;;;;;;;;;5074956;28;20409;-55
2022/01/13 05:39:54;;;;;;;27.97;12.03;;;;;;;;;;5074741;28;20950;-52
2022/01/13 05:42:20;;;;;;;26.40;13.80;;;;;;;;;;5074892;28;20409;-55
2022/01/13 05:44:47;;;;;;;24.90;14.03;;;;;;;;;;5090450;28;20825;-53
2022/01/13 05:47:13;;;;;;;23.80;13.33;;;;;;;;;;5090470;28;20438;-52
2022/01/13 05:49:40;;;;;;;23.77;13.77;;;;;;;;;;5075405;28;20469;-54
2022/01/13 05:52:07;;;;;;;23.37;13.87;;;;;;;;;;5074833;28;20456;-53
2022/01/13 05:54:33;;;;;;;23.93;14.20;;;;;;;;;;5074825;28;20434;-52
2022/01/13 05:56:59;;;;;;;29.07;14.10;;;;;;;;;;5074676;28;20406;-54
2022/01/13 05:59:25;;;;;;;28.10;13.17;;;;;;;;;;5074464;28;20441;-54
2022/01/13 06:01:51;;;;;;;28.40;14.40;;;;;;;;;;5074102;28;20426;-52
2022/01/13 06:04:17;;;;;;;18.67;11.10;;;;;;;;;;5074578;28;20510;-52
2022/01/13 06:06:43;;;;;;;24.90;10.67;;;;;;;;;;5074526;28;20874;-53
2022/01/13 06:09:09;;;;;;;26.23;13.67;;;;;;;;;;5073950;28;20501;-52
2022/01/13 06:11:42;;;;;;;26.27;13.63;;;;;;;;;;5074449;28;20441;-53
2022/01/13 06:14:08;;;;;;;27.73;14.40;;;;;;;;;;5074559;28;20805;-53
2022/01/13 06:16:34;;;;;;;29.57;13.70;;;;;;;;;;5074541;28;20403;-51
2022/01/13 06:19:00;;;;;;;27.80;14.60;;;;;;;;;;5074048;28;20406;-52
2022/01/13 06:21:26;;;;;;;31.70;14.10;;;;;;;;;;5073822;28;20450;-51
2022/01/13 06:23:52;;;;;;;24.97;13.90;;;;;;;;;;5073948;28;20543;-52
2022/01/13 06:26:19;;;;;;;22.53;11.20;;;;;;;;;;5073963;28;20930;-52
2022/01/13 06:28:45;;;;;;;26.33;14.50;;;;;;;;;;5074016;28;20406;-52
2022/01/13 06:31:11;;;;;;;19.63;10.63;;;;;;;;;;5073827;28;20422;-51
2022/01/13 06:33:37;;;;;;;30.10;14.37;;;;;;;;;;5074122;28;20411;-52
2022/01/13 06:36:07;;;;;;;23.90;11.80;;;;;;;;;;5073639;28;20414;-52
2022/01/13 06:38:33;;;;;;;27.60;13.60;;;;;;;;;;5089266;28;20446;-52
2022/01/13 06:41:01;;;;;;;27.27;12.37;;;;;;;;;;5073254;28;20971;-54
2022/01/13 06:43:27;;;;;;;29.93;14.23;;;;;;;;;;5089135;28;20485;-51
2022/01/13 06:45:53;;;;;;;26.43;13.83;;;;;;;;;;5089386;28;20796;-52
2022/01/13 06:48:19;;;;;;;24.90;13.60;;;;;;;;;;5072539;28;20399;-52
2022/01/13 06:50:45;;;;;;;22.80;12.30;;;;;;;;;;5073399;28;20418;-53
2022/01/13 06:53:12;;;;;;;28.80;13.50;;;;;;;;;;5073451;28;20756;-52
2022/01/13 06:55:38;;;;;;;28.83;13.43;;;;;;;;;;5073531;28;20895;-52
2022/01/13 06:58:04;;;;;;;27.57;13.13;;;;;;;;;;5073338;28;20438;-53
2022/01/13 07:00:30;;;;;;;25.00;12.80;;;;;;;;;;5073422;28;20418;-53
2022/01/13 07:02:58;;;;;;;22.47;13.40;;;;;;;;;;5071917;28;20410;-55
2022/01/13 07:05:25;;;;;;;31.57;14.60;;;;;;;;;;5073631;28;20523;-55
2022/01/13 07:07:51;;;;;;;21.93;12.17;;;;;;;;;;5073250;28;20911;-58
2022/01/13 07:10:17;;;;;;;25.93;13.57;;;;;;;;;;5073022;28;20419;-52
2022/01/13 07:12:43;;;;;;;23.37;12.63;;;;;;;;;;5073158;28;20764;-52
2022/01/13 07:15:10;;;;;;;24.67;12.57;;;;;;;;;;5088844;28;20953;-52
2022/01/13 07:17:36;;;;;;;24.80;13.90;;;;;;;;;;5073099;28;20406;-54
2022/01/13 07:20:02;;;;;;;24.70;11.43;;;;;;;;;;5072772;28;20501;-51
2022/01/13 07:22:28;;;;;;;24.40;13.33;;;;;;;;;;5073164;28;20407;-57
2022/01/13 07:24:54;;;;;;;31.23;14.40;;;;;;;;;;5072791;28;20506;-53
2022/01/13 07:27:20;;;;;;;20.53;10.40;;;;;;;;;;5073135;28;20402;-52
2022/01/13 07:29:48;;;;;;;23.10;12.27;;;;;;;;;;5072858;28;20759;-54
2022/01/13 07:32:15;;;;;;;28.60;13.50;;;;;;;;;;5072716;28;20506;-52
2022/01/13 07:34:41;;;;;;;22.23;11.27;;;;;;;;;;5072900;28;20415;-53
2022/01/13 07:37:07;;;;;;;24.30;13.37;;;;;;;;;;5072743;28;20418;-54
2022/01/13 07:39:35;;;;;;;26.97;12.77;;;;;;;;;;5072724;28;20946;-52
2022/01/13 07:42:01;;;;;;;20.80;12.07;;;;;;;;;;5088022;28;20415;-53
2022/01/13 07:44:27;;;;;;;25.20;12.03;;;;;;;;;;5072459;28;20474;-51
2022/01/13 07:46:56;;;;;;;27.47;12.57;;;;;;;;;;5072419;28;20764;-55
2022/01/13 07:49:22;;;;;;;26.20;13.83;;;;;;;;;;5072542;28;20480;-55
2022/01/13 07:51:48;;;;;;;27.17;14.20;;;;;;;;;;5072447;28;20506;-54
2022/01/13 07:54:14;;;;;;;25.10;12.60;;;;;;;;;;5072106;28;20845;-56
2022/01/13 07:56:40;;;;;;;31.23;13.87;;;;;;;;;;5072659;28;20410;-55
2022/01/13 07:59:06;;;;;;;20.97;10.33;;;;;;;;;;5072917;28;20415;-53
2022/01/13 08:01:32;;;;;;;18.10;10.87;;;;;;;;;;5072493;28;20407;-52
2022/01/13 08:03:58;;;;;;;18.97;12.10;;;;;;;;;;5072585;28;20468;-54
2022/01/13 08:06:24;;;;;;;18.97;10.07;;;;;;;;;;5072508;28;20487;-54
2022/01/13 08:08:50;;;;;;;22.20;11.67;;;;;;;;;;5072588;28;20403;-54
2022/01/13 08:11:16;;;;;;;21.40;11.20;;;;;;;;;;5072538;28;20418;-55
2022/01/13 08:13:43;;;;;;;27.93;13.50;;;;;;;;;;5072308;28;20403;-61
2022/01/13 08:16:10;;;;;;;26.53;13.00;;;;;;;;;;5072592;28;20549;-56
2022/01/13 08:21:21;;;;;;;24.23;12.60;;;;;;;;;;5072344;28;20457;-54
2022/01/13 08:23:48;;;;;;;16.77;10.17;;;;;;;;;;5072384;28;20469;-53
2022/01/13 08:26:14;;;;;;;20.37;12.73;;;;;;;;;;5072611;28;20475;-51
2022/01/13 08:28:40;;;;;;;23.80;12.10;;;;;;;;;;5072462;28;20464;-54
2022/01/13 08:31:06;;;;;;;25.17;13.30;;;;;;;;;;5072397;28;20410;-56
2022/01/13 08:33:32;;;;;;;24.43;12.87;;;;;;;;;;5072557;28;20456;-54
2022/01/13 08:35:58;;;;;;;21.30;11.40;;;;;;;;;;5072514;28;20407;-54
2022/01/13 08:38:25;;;;;;;20.83;11.53;;;;;;;;;;5072158;28;20493;-55
2022/01/13 08:40:53;;;;;;;20.70;13.27;;;;;;;;;;5072395;28;20502;-54
2022/01/13 08:43:20;;;;;;;21.67;11.87;;;;;;;;;;5073170;28;20429;-58
2022/01/13 08:45:46;;;;;;;20.23;12.43;;;;;;;;;;5070347;28;20445;-54
2022/01/13 08:48:13;;;;;;;21.43;13.03;;;;;;;;;;5068981;28;20456;-59
2022/01/13 08:50:39;;;;;;;19.73;11.83;;;;;;;;;;5070181;28;20938;-55
2022/01/13 08:53:05;;;;;;;21.63;12.53;;;;;;;;;;5070093;28;20914;-54
2022/01/13 08:55:31;;;;;;;17.67;9.97;;;;;;;;;;5069859;28;20840;-56
2022/01/13 08:57:57;;;;;;;16.23;10.43;;;;;;;;;;5069823;28;20406;-55
2022/01/13 09:00:24;;;;;;;18.87;11.00;;;;;;;;;;5072368;28;20921;-56
2022/01/13 09:02:50;;;;;;;18.03;11.30;;;;;;;;;;5069513;28;20819;-56
2022/01/13 09:05:17;;;;;;;19.80;11.23;;;;;;;;;;5069457;28;20466;-55
2022/01/13 09:07:43;;;;;;;21.20;12.90;;;;;;;;;;5069326;28;20411;-56
2022/01/13 09:10:10;;;;;;;21.73;11.30;;;;;;;;;;5070058;28;20945;-60
2022/01/13 09:12:36;;;;;;;18.20;11.60;;;;;;;;;;5073377;28;20413;-58
2022/01/13 09:15:13;;;;;;;17.20;11.07;;;;;;;;;;5073193;28;20422;-59
2022/01/13 09:17:41;;;;;;;16.07;10.20;;;;;;;;;;5072788;28;20402;-55
2022/01/13 09:20:08;;;;;;;18.27;11.33;;;;;;;;;;5072076;28;20500;-56
2022/01/13 09:22:34;;;;;;;13.10;9.10;;;;;;;;;;5072131;28;20422;-56
2022/01/13 09:25:00;;;;;;;20.53;10.87;;;;;;;;;;5071661;28;20474;-57
2022/01/13 09:27:26;;;;;;;18.63;10.93;;;;;;;;;;5071887;28;20440;-59
2022/01/13 09:29:52;;;;;;;17.83;10.30;;;;;;;;;;5072134;28;20423;-57
2022/01/13 09:32:18;;;;;;;20.30;10.83;;;;;;;;;;5072147;28;20472;-59
2022/01/13 09:34:44;;;;;;;16.57;11.00;;;;;;;;;;5072038;28;20418;-59
2022/01/13 09:37:11;;;;;;;14.27;9.43;;;;;;;;;;5072023;28;20817;-57
2022/01/13 09:39:38;;;;;;;16.20;10.30;;;;;;;;;;5071949;28;20532;-57
2022/01/13 09:42:05;;;;;;;14.20;9.70;;;;;;;;;;5072156;28;20429;-60
2022/01/13 09:44:32;;;;;;;16.90;11.10;;;;;;;;;;5071663;28;20476;-54
2022/01/13 09:46:58;;;;;;;21.67;11.00;;;;;;;;;;5071659;28;20417;-57
2022/01/13 09:49:25;;;;;;;13.33;8.80;;;;;;;;;;5072119;28;20411;-61
2022/01/13 09:51:51;;;;;;;13.40;8.23;;;;;;;;;;5072492;28;20473;-58
2022/01/13 09:54:17;;;;;;;18.70;10.23;;;;;;;;;;5070042;28;20469;-59
2022/01/13 09:56:43;;;;;;;19.43;10.63;;;;;;;;;;5071445;28;20933;-57
2022/01/13 09:59:09;;;;;;;13.80;8.73;;;;;;;;;;5071945;28;20837;-59
2022/01/13 10:01:35;;;;;;;15.87;10.67;;;;;;;;;;5071547;28;20446;-57
2022/01/13 10:04:01;;;;;;;15.87;9.53;;;;;;;;;;5069801;28;20838;-56
2022/01/13 10:06:27;;;;;;;14.93;8.37;;;;;;;;;;5071354;28;20510;-63
2022/01/13 10:08:55;;;;;;;23.83;10.90;;;;;;;;;;5071318;28;20593;-57
2022/01/13 10:11:27;;;;;;;22.13;10.73;;;;;;;;;;5071696;28;20453;-59
2022/01/13 10:17:04;;;;;;;14.07;9.47;;;;;;;;;;5071022;28;20431;-57
2022/01/13 10:19:30;;;;;;;11.83;9.27;;;;;;;;;;5071543;28;20406;-58
2022/01/13 10:22:07;;;;;;;18.80;10.70;;;;;;;;;;5070167;28;20820;-57
2022/01/13 10:24:35;;;;;;;15.60;9.97;;;;;;;;;;5069765;28;20818;-64
2022/01/13 10:27:05;;;;;;;24.17;11.60;;;;;;;;;;5071192;28;20772;-59
2022/01/13 10:29:45;;;;;;;16.43;9.87;;;;;;;;;;5070639;28;20540;-55
2022/01/13 10:32:12;;;;;;;11.23;8.47;;;;;;;;;;5069447;28;20426;-57
2022/01/13 10:34:39;;;;;;;14.27;9.17;;;;;;;;;;5070702;28;20411;-55
2022/01/13 10:37:14;;;;;;;15.67;10.87;;;;;;;;;;5069550;28;20935;-54
2022/01/13 10:39:43;;;;;;;16.57;10.27;;;;;;;;;;5070381;28;20922;-52
2022/01/13 10:45:01;;;;;;;20.40;10.67;;;;;;;;;;5069424;28;20953;-58
2022/01/13 10:47:28;;;;;;;18.87;11.80;;;;;;;;;;5070335;28;20411;-58
2022/01/13 10:49:59;;;;;;;18.80;11.47;;;;;;;;;;5071439;28;20425;-57
2022/01/13 10:52:26;;;;;;;20.50;12.03;;;;;;;;;;5070725;28;20497;-56
2022/01/13 10:55:08;;;;;;;17.07;10.93;;;;;;;;;;5069961;28;20414;-53
2022/01/13 10:57:34;;;;;;;20.80;12.07;;;;;;;;;;5070752;28;20486;-56
2022/01/13 11:00:01;;;;;;;21.27;11.80;;;;;;;;;;5070209;28;20422;-55
2022/01/13 11:02:27;;;;;;;21.53;12.93;;;;;;;;;;5070439;28;20395;-58
2022/01/13 11:04:54;;;;;;;18.83;11.57;;;;;;;;;;5070344;28;20831;-56
2022/01/13 11:07:23;;;;;;;14.33;8.97;;;;;;;;;;5070166;28;20486;-56
2022/01/13 11:09:57;;;;;;;19.60;11.73;;;;;;;;;;5070336;28;20767;-56
2022/01/13 11:12:39;;;;;;;22.13;11.90;;;;;;;;;;5069930;28;20437;-55
2022/01/13 11:15:07;;;;;;;20.53;12.27;;;;;;;;;;5070274;28;20480;-55
2022/01/13 11:17:36;;;;;;;21.33;12.77;;;;;;;;;;5070324;28;20493;-56
2022/01/13 11:20:03;;;;;;;22.87;11.60;;;;;;;;;;5068317;28;20458;-53
2022/01/13 11:22:34;;;;;;;21.97;11.53;;;;;;;;;;5070054;28;20413;-55
2022/01/13 11:25:00;;;;;;;18.40;11.33;;;;;;;;;;5070168;28;20602;-54
2022/01/13 11:27:26;;;;;;;19.33;12.03;;;;;;;;;;5068252;28;20411;-53
2022/01/13 11:29:52;;;;;;;22.50;10.67;;;;;;;;;;5069603;28;20926;-54
2022/01/13 11:32:18;;;;;;;23.03;12.57;;;;;;;;;;5069132;28;20779;-55
2022/01/13 11:34:46;;;;;;;16.00;10.00;;;;;;;;;;5069330;28;20427;-56
2022/01/13 11:37:12;;;;;;;17.77;11.70;;;;;;;;;;5069865;28;20403;-57
2022/01/13 11:39:39;;;;;;;19.63;10.50;;;;;;;;;;5069544;28;20415;-56
2022/01/13 11:42:10;;;;;;;16.70;10.30;;;;;;;;;;5069775;28;20444;-53
2022/01/13 11:44:37;;;;;;;13.87;9.43;;;;;;;;;;5069514;28;20501;-54
2022/01/13 11:47:08;;;;;;;13.60;9.77;;;;;;;;;;5069292;28;20430;-54
2022/01/13 11:49:54;;;;;;;18.93;12.37;;;;;;;;;;5069194;28;20422;-54
2022/01/13 11:52:44;;;;;;;18.53;12.07;;;;;;;;;;5069012;28;20403;-63
2022/01/13 11:55:20;;;;;;;18.73;9.83;;;;;;;;;;5069363;28;20733;-60
2022/01/13 11:57:46;;;;;;;18.40;12.23;;;;;;;;;;5069300;28;20402;-60
2022/01/13 12:00:18;;;;;;;19.60;12.40;;;;;;;;;;5068989;28;20411;-55
2022/01/13 12:02:45;;;;;;;17.27;10.30;;;;;;;;;;5068956;28;20415;-63
2022/01/13 12:05:14;;;;;;;13.93;9.87;;;;;;;;;;5068203;28;20886;-61
2022/01/13 12:07:44;;;;;;;16.10;10.50;;;;;;;;;;5068944;28;20411;-56
2022/01/13 12:10:31;;;;;;;17.83;12.00;;;;;;;;;;5069106;28;20418;-59
2022/01/13 12:12:57;;;;;;;17.83;11.63;;;;;;;;;;5068283;28;20839;-56
2022/01/13 12:15:25;;;;;;;17.73;11.33;;;;;;;;;;5069215;28;20415;-54
2022/01/13 12:17:59;;;;;;;16.73;11.07;;;;;;;;;;5069173;28;20407;-55
2022/01/13 12:20:27;;;;;;;16.50;9.97;;;;;;;;;;5069348;28;20467;-55
2022/01/13 12:25:31;;;;;;;17.93;10.43;;;;;;;;;;5068686;28;20481;-54
2022/01/13 12:27:58;;;;;;;24.50;10.70;;;;;;;;;;5068996;28;20440;-56
2022/01/13 12:30:25;;;;;;;16.97;10.10;;;;;;;;;;5068986;28;20410;-58
2022/01/13 12:32:53;;;;;;;17.20;10.73;;;;;;;;;;5069218;28;20410;-57
2022/01/13 12:35:22;;;;;;;13.20;9.97;;;;;;;;;;5067907;28;20926;-56
2022/01/13 12:38:07;;;;;;;14.80;10.13;;;;;;;;;;5069059;28;20407;-56
2022/01/13 12:40:39;;;;;;;19.13;10.60;;;;;;;;;;5068973;28;20419;-57
2022/01/13 12:46:11;;;;;;;14.37;10.57;;;;;;;;;;5068037;28;20988;-56
2022/01/13 12:48:38;;;;;;;13.27;9.17;;;;;;;;;;5073248;28;20434;-59
2022/01/13 12:51:04;;;;;;;15.30;9.43;;;;;;;;;;5072657;28;20708;-55
2022/01/13 12:53:32;;;;;;;14.33;9.50;;;;;;;;;;5072447;28;20406;-57
2022/01/13 12:56:07;;;;;;;13.70;8.30;;;;;;;;;;5072745;28;20928;-58
2022/01/13 12:58:34;;;;;;;17.87;10.17;;;;;;;;;;5072899;28;20410;-56
2022/01/13 13:01:02;;;;;;;12.33;9.80;;;;;;;;;;5072278;28;20429;-56
2022/01/13 13:03:28;;;;;;;15.47;10.27;;;;;;;;;;5072398;28;20491;-58
2022/01/13 13:05:56;;;;;;;16.93;10.70;;;;;;;;;;5072549;28;20450;-57
2022/01/13 13:08:23;;;;;;;13.50;9.90;;;;;;;;;;5071096;28;20411;-60
2022/01/13 13:10:51;;;;;;;16.63;9.63;;;;;;;;;;5072488;28;20414;-61
2022/01/13 13:13:19;;;;;;;14.53;10.00;;;;;;;;;;5072941;28;20407;-60
2022/01/13 13:15:51;;;;;;;14.57;10.37;;;;;;;;;;5073184;28;20449;-60
2022/01/13 13:18:19;;;;;;;15.33;9.00;;;;;;;;;;5054479;28;20440;-57
2022/01/13 13:20:48;;;;;;;18.70;10.97;;;;;;;;;;5071918;28;20450;-56
2022/01/13 13:23:14;;;;;;;14.73;9.80;;;;;;;;;;5071977;28;20417;-59
2022/01/13 13:25:43;;;;;;;13.60;8.93;;;;;;;;;;5071924;28;20466;-56
2022/01/13 13:28:19;;;;;;;16.63;9.77;;;;;;;;;;5072331;28;20425;-59
2022/01/13 13:30:46;;;;;;;15.97;9.57;;;;;;;;;;5072227;28;20463;-56
2022/01/13 13:33:12;;;;;;;12.40;8.73;;;;;;;;;;5071973;28;20407;-59
2022/01/13 13:35:38;;;;;;;14.83;9.63;;;;;;;;;;5070909;28;20447;-61
2022/01/13 13:38:04;;;;;;;19.20;10.10;;;;;;;;;;5071945;28;20426;-56
2022/01/13 13:40:30;;;;;;;15.00;9.60;;;;;;;;;;5071549;28;20415;-58
2022/01/13 13:43:08;;;;;;;16.80;10.17;;;;;;;;;;5071527;28;20413;-57
2022/01/13 13:45:34;;;;;;;17.53;10.37;;;;;;;;;;5071470;28;20517;-56
2022/01/13 13:48:01;;;;;;;15.23;9.83;;;;;;;;;;5071301;28;20755;-57
2022/01/13 13:50:29;;;;;;;15.70;10.60;;;;;;;;;;5071091;28;20424;-57
2022/01/13 13:53:05;;;;;;;23.57;9.10;;;;;;;;;;5071435;28;20399;-58
2022/01/13 13:55:32;;;;;;;12.80;9.83;;;;;;;;;;5071103;28;20414;-57
2022/01/13 13:57:58;;;;;;;13.10;9.67;;;;;;;;;;5071164;28;20403;-60
2022/01/13 14:00:26;;;;;;;13.40;9.93;;;;;;;;;;5071416;28;20923;-62
2022/01/13 14:02:53;;;;;;;13.93;10.27;;;;;;;;;;5072124;28;20403;-57
2022/01/13 14:05:21;;;;;;;14.67;9.33;;;;;;;;;;5070213;28;20865;-57
2022/01/13 14:07:48;;;;;;;14.90;10.00;;;;;;;;;;5071562;28;20436;-57
2022/01/13 14:10:25;;;;;;;16.00;10.40;;;;;;;;;;5070508;28;20918;-58
2022/01/13 14:13:00;;;;;;;15.90;10.20;;;;;;;;;;5071396;28;20464;-58
2022/01/13 14:15:34;;;;;;;13.10;9.37;;;;;;;;;;5071256;28;20410;-57
2022/01/13 14:18:09;;;;;;;10.40;7.93;;;;;;;;;;5071240;28;20406;-59
2022/01/13 14:20:36;;;;;;;12.57;8.57;;;;;;;;;;5071357;28;20503;-56
2022/01/13 14:23:05;;;;;;;14.13;10.13;;;;;;;;;;5070913;28;20415;-60
2022/01/13 14:25:32;;;;;;;13.90;9.00;;;;;;;;;;5070680;28;20469;-64
2022/01/13 14:28:00;;;;;;;12.97;10.07;;;;;;;;;;5069447;28;20403;-57
2022/01/13 14:30:27;;;;;;;12.83;7.20;;;;;;;;;;5070961;28;20752;-56
2022/01/13 14:33:11;;;;;;;13.73;9.57;;;;;;;;;;5071186;28;20794;-55
2022/01/13 14:35:37;;;;;;;13.23;9.20;;;;;;;;;;5071257;28;20414;-58
2022/01/13 14:38:09;;;;;;;14.50;7.73;;;;;;;;;;5070823;28;20502;-56
2022/01/13 14:40:42;;;;;;;14.13;9.03;;;;;;;;;;5070655;28;20923;-56
2022/01/13 14:43:17;;;;;;;15.00;10.23;;;;;;;;;;5069281;28;20573;-55
2022/01/13 14:45:46;;;;;;;14.17;9.90;;;;;;;;;;5070234;28;20473;-57
2022/01/13 14:48:13;;;;;;;12.90;9.60;;;;;;;;;;5069088;28;20505;-57
2022/01/13 14:50:39;;;;;;;20.07;9.67;;;;;;;;;;5070784;28;20425;-54
2022/01/13 14:53:05;;;;;;;17.03;9.10;;;;;;;;;;5070625;28;20411;-55
2022/01/13 14:55:31;;;;;;;20.30;10.83;;;;;;;;;;5070343;28;20419;-57